sensor_id;sensor_type;location;lat;lon;timestamp;temperature;humidity
11107;DHT22;5607;48.302;14.294;2023-07-29T00:00:26;20.70;99.90
11107;DHT22;5607;48.302;14.294;2023-07-29T00:03:14;20.70;99.90
11107;DHT22;5607;48.302;14.294;2023-07-29T00:06:00;20.70;99.90
11107;DHT22;5607;48.302;14.294;2023-07-29T00:08:46;20.70;99.90
11107;DHT22;5607;48.302;14.294;2023-07-29T00:11:32;20.70;99.90
11107;DHT22;5607;48.302;14.294;2023-07-29T00:14:19;20.80;99.90
11107;DHT22;5607;48.302;14.294;2023-07-29T00:17:06;20.80;99.90
11107;DHT22;5607;48.302;14.294;2023-07-29T00:19:52;20.80;99.90
11107;DHT22;5607;48.302;14.294;2023-07-29T00:22:38;20.80;99.90
11107;DHT22;5607;48.302;14.294;2023-07-29T00:25:24;20.90;99.90
11107;DHT22;5607;48.302;14.294;2023-07-29T00:28:11;20.90;99.90
11107;DHT22;5607;48.302;14.294;2023-07-29T00:30:57;20.90;99.90
11107;DHT22;5607;48.302;14.294;2023-07-29T00:33:43;20.90;99.90
11107;DHT22;5607;48.302;14.294;2023-07-29T00:36:30;21.00;99.90
11107;DHT22;5607;48.302;14.294;2023-07-29T00:39:16;21.00;99.90
11107;DHT22;5607;48.302;14.294;2023-07-29T00:42:02;21.10;99.90
11107;DHT22;5607;48.302;14.294;2023-07-29T00:44:49;21.00;99.90
11107;DHT22;5607;48.302;14.294;2023-07-29T00:47:35;20.90;99.90
11107;DHT22;5607;48.302;14.294;2023-07-29T00:50:21;20.80;99.90
11107;DHT22;5607;48.302;14.294;2023-07-29T00:53:08;20.90;99.90
11107;DHT22;5607;48.302;14.294;2023-07-29T00:55:54;20.80;99.90
11107;DHT22;5607;48.302;14.294;2023-07-29T00:58:41;20.80;99.90
11107;DHT22;5607;48.302;14.294;2023-07-29T01:01:28;20.80;99.90
11107;DHT22;5607;48.302;14.294;2023-07-29T01:04:15;20.80;99.90
11107;DHT22;5607;48.302;14.294;2023-07-29T01:07:03;20.80;99.90
11107;DHT22;5607;48.302;14.294;2023-07-29T01:12:42;20.70;99.90
11107;DHT22;5607;48.302;14.294;2023-07-29T01:18:23;20.60;99.90
11107;DHT22;5607;48.302;14.294;2023-07-29T01:21:10;20.60;99.90
11107;DHT22;5607;48.302;14.294;2023-07-29T01:24:00;20.60;99.90
11107;DHT22;5607;48.302;14.294;2023-07-29T01:26:46;20.60;99.90
11107;DHT22;5607;48.302;14.294;2023-07-29T01:29:32;20.60;99.90
11107;DHT22;5607;48.302;14.294;2023-07-29T01:32:20;20.70;99.90
11107;DHT22;5607;48.302;14.294;2023-07-29T01:35:11;20.60;99.90
11107;DHT22;5607;48.302;14.294;2023-07-29T01:38:13;20.60;99.90
11107;DHT22;5607;48.302;14.294;2023-07-29T01:41:01;20.50;99.90
11107;DHT22;5607;48.302;14.294;2023-07-29T01:43:48;20.60;99.90
11107;DHT22;5607;48.302;14.294;2023-07-29T01:46:35;20.60;99.90
11107;DHT22;5607;48.302;14.294;2023-07-29T01:49:22;20.70;99.90
11107;DHT22;5607;48.302;14.294;2023-07-29T01:52:08;20.70;99.90
11107;DHT22;5607;48.302;14.294;2023-07-29T01:54:54;20.70;99.90
11107;DHT22;5607;48.302;14.294;2023-07-29T01:57:41;20.60;99.90
11107;DHT22;5607;48.302;14.294;2023-07-29T02:00:27;20.60;99.90
11107;DHT22;5607;48.302;14.294;2023-07-29T02:03:13;20.60;99.90
11107;DHT22;5607;48.302;14.294;2023-07-29T02:06:00;20.60;99.90
11107;DHT22;5607;48.302;14.294;2023-07-29T02:08:46;20.60;99.90
11107;DHT22;5607;48.302;14.294;2023-07-29T02:11:32;20.60;99.90
11107;DHT22;5607;48.302;14.294;2023-07-29T02:14:18;20.60;99.90
11107;DHT22;5607;48.302;14.294;2023-07-29T02:17:04;20.50;99.90
11107;DHT22;5607;48.302;14.294;2023-07-29T02:19:51;20.50;99.90
11107;DHT22;5607;48.302;14.294;2023-07-29T02:22:37;20.50;99.90
11107;DHT22;5607;48.302;14.294;2023-07-29T02:25:23;20.40;99.90
11107;DHT22;5607;48.302;14.294;2023-07-29T02:28:09;20.40;99.90
11107;DHT22;5607;48.302;14.294;2023-07-29T02:33:57;20.30;99.90
11107;DHT22;5607;48.302;14.294;2023-07-29T02:36:43;20.30;99.90
11107;DHT22;5607;48.302;14.294;2023-07-29T02:39:30;20.30;99.90
11107;DHT22;5607;48.302;14.294;2023-07-29T02:42:16;20.20;99.90
11107;DHT22;5607;48.302;14.294;2023-07-29T02:45:03;20.20;99.90
11107;DHT22;5607;48.302;14.294;2023-07-29T02:47:49;20.20;99.90
11107;DHT22;5607;48.302;14.294;2023-07-29T02:50:35;20.20;99.90
11107;DHT22;5607;48.302;14.294;2023-07-29T02:53:22;20.10;99.90
11107;DHT22;5607;48.302;14.294;2023-07-29T02:56:08;20.10;99.90
11107;DHT22;5607;48.302;14.294;2023-07-29T02:58:55;20.10;99.90
11107;DHT22;5607;48.302;14.294;2023-07-29T03:01:42;20.20;99.90
11107;DHT22;5607;48.302;14.294;2023-07-29T03:04:28;20.10;99.90
11107;DHT22;5607;48.302;14.294;2023-07-29T03:07:14;20.20;99.90
11107;DHT22;5607;48.302;14.294;2023-07-29T03:10:00;20.00;99.90
11107;DHT22;5607;48.302;14.294;2023-07-29T03:12:47;19.90;99.90
11107;DHT22;5607;48.302;14.294;2023-07-29T03:15:33;19.90;99.90
11107;DHT22;5607;48.302;14.294;2023-07-29T03:18:21;19.90;99.90
11107;DHT22;5607;48.302;14.294;2023-07-29T03:21:07;19.90;99.90
11107;DHT22;5607;48.302;14.294;2023-07-29T03:23:53;19.90;99.90
11107;DHT22;5607;48.302;14.294;2023-07-29T03:26:39;19.90;99.90
11107;DHT22;5607;48.302;14.294;2023-07-29T03:29:26;19.90;99.90
11107;DHT22;5607;48.302;14.294;2023-07-29T03:32:12;20.00;99.90
11107;DHT22;5607;48.302;14.294;2023-07-29T03:34:58;19.90;99.90
11107;DHT22;5607;48.302;14.294;2023-07-29T03:37:45;19.90;99.90
11107;DHT22;5607;48.302;14.294;2023-07-29T03:40:31;19.80;99.90
11107;DHT22;5607;48.302;14.294;2023-07-29T03:43:18;19.70;99.90
11107;DHT22;5607;48.302;14.294;2023-07-29T03:46:04;19.70;99.90
11107;DHT22;5607;48.302;14.294;2023-07-29T03:48:51;19.70;99.90
11107;DHT22;5607;48.302;14.294;2023-07-29T03:51:37;19.70;99.90
11107;DHT22;5607;48.302;14.294;2023-07-29T03:54:23;19.60;99.90
11107;DHT22;5607;48.302;14.294;2023-07-29T03:57:10;19.60;99.90
11107;DHT22;5607;48.302;14.294;2023-07-29T03:59:56;19.70;99.90
11107;DHT22;5607;48.302;14.294;2023-07-29T04:02:42;19.70;99.90
11107;DHT22;5607;48.302;14.294;2023-07-29T04:05:28;19.70;99.90
11107;DHT22;5607;48.302;14.294;2023-07-29T04:08:14;19.60;99.90
11107;DHT22;5607;48.302;14.294;2023-07-29T04:11:01;19.60;99.90
11107;DHT22;5607;48.302;14.294;2023-07-29T04:13:47;19.60;99.90
11107;DHT22;5607;48.302;14.294;2023-07-29T04:16:33;19.70;99.90
11107;DHT22;5607;48.302;14.294;2023-07-29T04:19:19;19.70;99.90
11107;DHT22;5607;48.302;14.294;2023-07-29T04:22:06;19.60;99.90
11107;DHT22;5607;48.302;14.294;2023-07-29T04:24:52;19.60;99.90
11107;DHT22;5607;48.302;14.294;2023-07-29T04:27:38;19.50;99.90
11107;DHT22;5607;48.302;14.294;2023-07-29T04:30:25;19.50;99.90
11107;DHT22;5607;48.302;14.294;2023-07-29T04:33:11;19.50;99.90
11107;DHT22;5607;48.302;14.294;2023-07-29T04:35:57;19.40;99.90
11107;DHT22;5607;48.302;14.294;2023-07-29T04:38:43;19.50;99.90
11107;DHT22;5607;48.302;14.294;2023-07-29T04:41:30;19.60;99.90
11107;DHT22;5607;48.302;14.294;2023-07-29T04:44:16;19.60;99.90
11107;DHT22;5607;48.302;14.294;2023-07-29T04:47:02;19.80;99.90
11107;DHT22;5607;48.302;14.294;2023-07-29T04:49:48;19.80;99.90
11107;DHT22;5607;48.302;14.294;2023-07-29T04:52:36;19.90;99.90
11107;DHT22;5607;48.302;14.294;2023-07-29T04:55:22;19.90;99.90
11107;DHT22;5607;48.302;14.294;2023-07-29T04:58:08;19.90;99.90
11107;DHT22;5607;48.302;14.294;2023-07-29T05:00:55;19.90;99.90
11107;DHT22;5607;48.302;14.294;2023-07-29T05:03:41;19.80;99.90
11107;DHT22;5607;48.302;14.294;2023-07-29T05:06:27;19.80;99.90
11107;DHT22;5607;48.302;14.294;2023-07-29T05:09:14;19.80;99.90
11107;DHT22;5607;48.302;14.294;2023-07-29T05:12:01;19.80;99.90
11107;DHT22;5607;48.302;14.294;2023-07-29T05:14:47;19.90;99.90
11107;DHT22;5607;48.302;14.294;2023-07-29T05:17:34;19.90;99.90
11107;DHT22;5607;48.302;14.294;2023-07-29T05:20:20;20.00;99.90
11107;DHT22;5607;48.302;14.294;2023-07-29T05:23:06;20.10;99.90
11107;DHT22;5607;48.302;14.294;2023-07-29T05:25:52;20.20;99.90
11107;DHT22;5607;48.302;14.294;2023-07-29T05:28:38;20.20;99.90
11107;DHT22;5607;48.302;14.294;2023-07-29T05:31:25;20.30;99.90
11107;DHT22;5607;48.302;14.294;2023-07-29T05:34:11;20.30;99.90
11107;DHT22;5607;48.302;14.294;2023-07-29T05:36:57;20.30;99.90
11107;DHT22;5607;48.302;14.294;2023-07-29T05:39:43;20.30;99.90
11107;DHT22;5607;48.302;14.294;2023-07-29T05:42:29;20.20;99.90
11107;DHT22;5607;48.302;14.294;2023-07-29T05:45:16;20.20;99.90
11107;DHT22;5607;48.302;14.294;2023-07-29T05:48:02;20.10;99.90
11107;DHT22;5607;48.302;14.294;2023-07-29T05:50:48;20.20;99.90
11107;DHT22;5607;48.302;14.294;2023-07-29T05:53:35;20.10;99.90
11107;DHT22;5607;48.302;14.294;2023-07-29T05:56:21;20.00;99.90
11107;DHT22;5607;48.302;14.294;2023-07-29T05:59:07;20.10;99.90
11107;DHT22;5607;48.302;14.294;2023-07-29T06:01:53;20.30;99.90
11107;DHT22;5607;48.302;14.294;2023-07-29T06:04:40;20.40;99.90
11107;DHT22;5607;48.302;14.294;2023-07-29T06:07:26;20.30;99.90
11107;DHT22;5607;48.302;14.294;2023-07-29T06:10:16;20.40;99.90
11107;DHT22;5607;48.302;14.294;2023-07-29T06:13:04;20.50;99.90
11107;DHT22;5607;48.302;14.294;2023-07-29T06:15:50;20.70;99.90
11107;DHT22;5607;48.302;14.294;2023-07-29T06:18:37;20.80;99.90
11107;DHT22;5607;48.302;14.294;2023-07-29T06:21:23;21.00;99.90
11107;DHT22;5607;48.302;14.294;2023-07-29T06:24:09;20.90;99.90
11107;DHT22;5607;48.302;14.294;2023-07-29T06:26:55;21.00;99.90
11107;DHT22;5607;48.302;14.294;2023-07-29T06:29:41;21.00;99.90
11107;DHT22;5607;48.302;14.294;2023-07-29T06:32:28;21.10;99.90
11107;DHT22;5607;48.302;14.294;2023-07-29T06:35:14;21.40;99.90
11107;DHT22;5607;48.302;14.294;2023-07-29T06:38:00;21.70;99.90
11107;DHT22;5607;48.302;14.294;2023-07-29T06:40:47;21.80;99.90
11107;DHT22;5607;48.302;14.294;2023-07-29T06:43:34;22.00;99.90
11107;DHT22;5607;48.302;14.294;2023-07-29T06:46:20;22.20;99.90
11107;DHT22;5607;48.302;14.294;2023-07-29T06:49:06;22.30;99.90
11107;DHT22;5607;48.302;14.294;2023-07-29T06:51:52;22.50;99.90
11107;DHT22;5607;48.302;14.294;2023-07-29T06:54:39;22.70;99.90
11107;DHT22;5607;48.302;14.294;2023-07-29T06:57:25;22.90;99.90
11107;DHT22;5607;48.302;14.294;2023-07-29T07:00:12;22.80;99.90
11107;DHT22;5607;48.302;14.294;2023-07-29T07:02:58;22.90;99.90
11107;DHT22;5607;48.302;14.294;2023-07-29T07:05:44;22.60;99.90
11107;DHT22;5607;48.302;14.294;2023-07-29T07:08:31;22.50;99.90
11107;DHT22;5607;48.302;14.294;2023-07-29T07:11:20;22.50;99.90
11107;DHT22;5607;48.302;14.294;2023-07-29T07:14:06;22.70;99.90
11107;DHT22;5607;48.302;14.294;2023-07-29T07:16:53;22.90;99.90
11107;DHT22;5607;48.302;14.294;2023-07-29T07:19:39;23.20;99.90
11107;DHT22;5607;48.302;14.294;2023-07-29T07:22:26;23.30;99.90
11107;DHT22;5607;48.302;14.294;2023-07-29T07:25:12;23.50;99.90
11107;DHT22;5607;48.302;14.294;2023-07-29T07:27:58;23.70;99.90
11107;DHT22;5607;48.302;14.294;2023-07-29T07:30:44;23.80;99.90
11107;DHT22;5607;48.302;14.294;2023-07-29T07:33:31;24.00;99.90
11107;DHT22;5607;48.302;14.294;2023-07-29T07:36:17;24.00;95.30
11107;DHT22;5607;48.302;14.294;2023-07-29T07:39:03;24.20;83.50
11107;DHT22;5607;48.302;14.294;2023-07-29T07:41:49;24.10;83.90
11107;DHT22;5607;48.302;14.294;2023-07-29T07:44:35;24.00;97.00
11107;DHT22;5607;48.302;14.294;2023-07-29T07:47:22;24.20;73.60
11107;DHT22;5607;48.302;14.294;2023-07-29T07:50:08;24.40;77.10
11107;DHT22;5607;48.302;14.294;2023-07-29T07:52:54;24.70;72.50
11107;DHT22;5607;48.302;14.294;2023-07-29T07:55:40;25.00;63.70
11107;DHT22;5607;48.302;14.294;2023-07-29T07:58:27;25.10;66.90
11107;DHT22;5607;48.302;14.294;2023-07-29T08:01:13;25.40;51.20
11107;DHT22;5607;48.302;14.294;2023-07-29T08:03:59;25.60;44.30
11107;DHT22;5607;48.302;14.294;2023-07-29T08:06:45;25.40;45.30
11107;DHT22;5607;48.302;14.294;2023-07-29T08:09:31;25.30;46.70
11107;DHT22;5607;48.302;14.294;2023-07-29T08:12:18;25.20;47.50
11107;DHT22;5607;48.302;14.294;2023-07-29T08:15:04;25.30;62.50
11107;DHT22;5607;48.302;14.294;2023-07-29T08:17:51;25.30;49.70
11107;DHT22;5607;48.302;14.294;2023-07-29T08:20:37;25.40;51.40
11107;DHT22;5607;48.302;14.294;2023-07-29T08:23:25;25.50;61.50
11107;DHT22;5607;48.302;14.294;2023-07-29T08:26:11;25.40;52.60
11107;DHT22;5607;48.302;14.294;2023-07-29T08:28:58;25.50;37.70
11107;DHT22;5607;48.302;14.294;2023-07-29T08:31:44;25.40;54.40
11107;DHT22;5607;48.302;14.294;2023-07-29T08:34:30;25.20;28.70
11107;DHT22;5607;48.302;14.294;2023-07-29T08:37:16;25.20;51.30
11107;DHT22;5607;48.302;14.294;2023-07-29T08:40:03;25.10;44.50
11107;DHT22;5607;48.302;14.294;2023-07-29T08:42:49;24.90;34.50
11107;DHT22;5607;48.302;14.294;2023-07-29T08:45:36;24.90;47.90
11107;DHT22;5607;48.302;14.294;2023-07-29T08:48:46;24.90;45.60
11107;DHT22;5607;48.302;14.294;2023-07-29T08:51:32;24.90;52.30
11107;DHT22;5607;48.302;14.294;2023-07-29T08:54:19;24.90;51.40
11107;DHT22;5607;48.302;14.294;2023-07-29T08:57:06;24.90;59.00
11107;DHT22;5607;48.302;14.294;2023-07-29T08:59:52;25.10;44.80
11107;DHT22;5607;48.302;14.294;2023-07-29T09:02:39;25.10;56.70
11107;DHT22;5607;48.302;14.294;2023-07-29T09:05:25;25.00;49.70
11107;DHT22;5607;48.302;14.294;2023-07-29T09:08:11;25.00;50.30
11107;DHT22;5607;48.302;14.294;2023-07-29T09:10:57;25.10;51.40
11107;DHT22;5607;48.302;14.294;2023-07-29T09:13:44;25.10;43.40
11107;DHT22;5607;48.302;14.294;2023-07-29T09:16:30;25.00;58.80
11107;DHT22;5607;48.302;14.294;2023-07-29T09:19:17;25.00;49.30
11107;DHT22;5607;48.302;14.294;2023-07-29T09:22:04;24.90;55.70
11107;DHT22;5607;48.302;14.294;2023-07-29T09:24:50;24.90;46.00
11107;DHT22;5607;48.302;14.294;2023-07-29T09:27:37;25.00;58.80
11107;DHT22;5607;48.302;14.294;2023-07-29T09:30:25;25.40;44.80
11107;DHT22;5607;48.302;14.294;2023-07-29T09:33:11;25.80;39.80
11107;DHT22;5607;48.302;14.294;2023-07-29T09:35:58;26.10;39.00
11107;DHT22;5607;48.302;14.294;2023-07-29T09:38:44;26.10;47.20
11107;DHT22;5607;48.302;14.294;2023-07-29T09:41:31;26.00;42.10
11107;DHT22;5607;48.302;14.294;2023-07-29T09:44:17;26.20;41.80
11107;DHT22;5607;48.302;14.294;2023-07-29T09:47:04;26.50;46.50
11107;DHT22;5607;48.302;14.294;2023-07-29T09:49:51;26.50;33.40
11107;DHT22;5607;48.302;14.294;2023-07-29T09:52:37;26.20;46.90
11107;DHT22;5607;48.302;14.294;2023-07-29T09:55:24;26.10;56.90
11107;DHT22;5607;48.302;14.294;2023-07-29T09:58:10;25.80;59.60
11107;DHT22;5607;48.302;14.294;2023-07-29T10:00:56;26.10;52.30
11107;DHT22;5607;48.302;14.294;2023-07-29T10:03:43;26.00;39.50
11107;DHT22;5607;48.302;14.294;2023-07-29T10:06:30;26.30;40.90
11107;DHT22;5607;48.302;14.294;2023-07-29T10:09:16;25.80;49.20
11107;DHT22;5607;48.302;14.294;2023-07-29T10:12:03;25.50;57.90
11107;DHT22;5607;48.302;14.294;2023-07-29T10:14:50;24.90;99.90
11107;DHT22;5607;48.302;14.294;2023-07-29T10:17:37;23.70;99.90
11107;DHT22;5607;48.302;14.294;2023-07-29T10:20:24;22.50;99.90
11107;DHT22;5607;48.302;14.294;2023-07-29T10:23:10;21.70;99.90
11107;DHT22;5607;48.302;14.294;2023-07-29T10:26:03;21.40;99.90
11107;DHT22;5607;48.302;14.294;2023-07-29T10:28:50;21.40;99.90
11107;DHT22;5607;48.302;14.294;2023-07-29T10:31:39;21.60;99.90
11107;DHT22;5607;48.302;14.294;2023-07-29T10:34:26;21.90;99.90
11107;DHT22;5607;48.302;14.294;2023-07-29T10:37:13;22.20;99.90
11107;DHT22;5607;48.302;14.294;2023-07-29T10:39:59;22.50;99.90
11107;DHT22;5607;48.302;14.294;2023-07-29T10:43:02;22.70;99.90
11107;DHT22;5607;48.302;14.294;2023-07-29T10:45:48;22.90;99.90
11107;DHT22;5607;48.302;14.294;2023-07-29T10:51:21;23.50;99.90
11107;DHT22;5607;48.302;14.294;2023-07-29T10:54:12;23.90;99.90
11107;DHT22;5607;48.302;14.294;2023-07-29T10:56:58;24.00;99.90
11107;DHT22;5607;48.302;14.294;2023-07-29T10:59:54;24.30;99.90
11107;DHT22;5607;48.302;14.294;2023-07-29T11:02:41;24.40;99.90
11107;DHT22;5607;48.302;14.294;2023-07-29T11:05:41;24.70;99.90
11107;DHT22;5607;48.302;14.294;2023-07-29T11:08:28;24.90;99.90
11107;DHT22;5607;48.302;14.294;2023-07-29T11:11:15;25.20;99.90
11107;DHT22;5607;48.302;14.294;2023-07-29T11:14:01;25.10;99.90
11107;DHT22;5607;48.302;14.294;2023-07-29T11:16:48;25.20;99.90
11107;DHT22;5607;48.302;14.294;2023-07-29T11:19:34;25.30;99.90
11107;DHT22;5607;48.302;14.294;2023-07-29T11:22:21;25.40;99.90
11107;DHT22;5607;48.302;14.294;2023-07-29T11:25:08;25.50;99.90
11107;DHT22;5607;48.302;14.294;2023-07-29T11:27:56;25.70;99.90
11107;DHT22;5607;48.302;14.294;2023-07-29T11:30:42;25.80;99.90
11107;DHT22;5607;48.302;14.294;2023-07-29T11:33:28;26.20;99.90
11107;DHT22;5607;48.302;14.294;2023-07-29T11:36:18;26.30;99.90
11107;DHT22;5607;48.302;14.294;2023-07-29T11:39:11;26.00;99.90
11107;DHT22;5607;48.302;14.294;2023-07-29T11:41:57;26.00;90.70
11107;DHT22;5607;48.302;14.294;2023-07-29T11:44:44;25.80;99.90
11107;DHT22;5607;48.302;14.294;2023-07-29T11:47:30;25.90;99.90
11107;DHT22;5607;48.302;14.294;2023-07-29T11:50:17;26.00;99.90
11107;DHT22;5607;48.302;14.294;2023-07-29T11:53:03;25.90;99.90
11107;DHT22;5607;48.302;14.294;2023-07-29T11:55:52;26.10;99.90
11107;DHT22;5607;48.302;14.294;2023-07-29T11:58:39;26.40;91.80
11107;DHT22;5607;48.302;14.294;2023-07-29T12:01:25;26.60;97.40
11107;DHT22;5607;48.302;14.294;2023-07-29T12:04:12;26.70;77.70
11107;DHT22;5607;48.302;14.294;2023-07-29T12:06:58;26.70;61.40
11107;DHT22;5607;48.302;14.294;2023-07-29T12:09:44;26.60;67.30
11107;DHT22;5607;48.302;14.294;2023-07-29T12:12:31;26.70;57.60
11107;DHT22;5607;48.302;14.294;2023-07-29T12:15:27;26.50;41.50
11107;DHT22;5607;48.302;14.294;2023-07-29T12:18:13;26.20;59.90
11107;DHT22;5607;48.302;14.294;2023-07-29T12:21:01;26.40;65.20
11107;DHT22;5607;48.302;14.294;2023-07-29T12:23:47;26.80;58.80
11107;DHT22;5607;48.302;14.294;2023-07-29T12:26:36;27.30;46.80
11107;DHT22;5607;48.302;14.294;2023-07-29T12:29:23;27.60;48.10
11107;DHT22;5607;48.302;14.294;2023-07-29T12:32:10;27.30;49.80
11107;DHT22;5607;48.302;14.294;2023-07-29T12:34:56;27.10;51.40
11107;DHT22;5607;48.302;14.294;2023-07-29T12:37:42;27.00;41.80
11107;DHT22;5607;48.302;14.294;2023-07-29T12:40:29;27.20;46.00
11107;DHT22;5607;48.302;14.294;2023-07-29T12:43:15;27.40;40.30
11107;DHT22;5607;48.302;14.294;2023-07-29T12:46:01;27.80;40.00
11107;DHT22;5607;48.302;14.294;2023-07-29T12:48:47;28.00;35.60
11107;DHT22;5607;48.302;14.294;2023-07-29T12:51:33;28.50;24.70
11107;DHT22;5607;48.302;14.294;2023-07-29T12:54:20;28.30;27.00
11107;DHT22;5607;48.302;14.294;2023-07-29T12:57:06;28.30;30.20
11107;DHT22;5607;48.302;14.294;2023-07-29T12:59:52;28.00;31.20
11107;DHT22;5607;48.302;14.294;2023-07-29T13:02:39;27.90;25.10
11107;DHT22;5607;48.302;14.294;2023-07-29T13:05:25;27.70;32.30
11107;DHT22;5607;48.302;14.294;2023-07-29T13:08:11;27.70;28.90
11107;DHT22;5607;48.302;14.294;2023-07-29T13:10:58;27.50;31.90
11107;DHT22;5607;48.302;14.294;2023-07-29T13:13:44;27.30;41.10
11107;DHT22;5607;48.302;14.294;2023-07-29T13:16:31;27.00;45.20
11107;DHT22;5607;48.302;14.294;2023-07-29T13:19:20;27.00;46.90
11107;DHT22;5607;48.302;14.294;2023-07-29T13:22:07;26.80;41.10
11107;DHT22;5607;48.302;14.294;2023-07-29T13:24:53;26.50;41.30
11107;DHT22;5607;48.302;14.294;2023-07-29T13:27:39;26.30;40.60
11107;DHT22;5607;48.302;14.294;2023-07-29T13:30:25;26.00;56.30
11107;DHT22;5607;48.302;14.294;2023-07-29T13:33:12;25.70;55.90
11107;DHT22;5607;48.302;14.294;2023-07-29T13:35:58;25.40;54.20
11107;DHT22;5607;48.302;14.294;2023-07-29T13:38:44;25.30;78.30
11107;DHT22;5607;48.302;14.294;2023-07-29T13:41:30;25.30;73.70
11107;DHT22;5607;48.302;14.294;2023-07-29T13:44:16;25.20;72.40
11107;DHT22;5607;48.302;14.294;2023-07-29T13:47:03;25.20;76.90
11107;DHT22;5607;48.302;14.294;2023-07-29T13:49:49;25.00;68.30
11107;DHT22;5607;48.302;14.294;2023-07-29T13:52:36;25.00;79.40
11107;DHT22;5607;48.302;14.294;2023-07-29T13:55:22;25.10;69.80
11107;DHT22;5607;48.302;14.294;2023-07-29T13:58:08;25.00;99.90
11107;DHT22;5607;48.302;14.294;2023-07-29T14:00:54;24.90;99.90
11107;DHT22;5607;48.302;14.294;2023-07-29T14:03:41;24.60;99.90
11107;DHT22;5607;48.302;14.294;2023-07-29T14:06:27;24.50;99.90
11107;DHT22;5607;48.302;14.294;2023-07-29T14:09:13;24.60;99.90
11107;DHT22;5607;48.302;14.294;2023-07-29T14:11:59;24.90;99.90
11107;DHT22;5607;48.302;14.294;2023-07-29T14:14:45;25.00;99.90
11107;DHT22;5607;48.302;14.294;2023-07-29T14:17:33;25.20;99.90
11107;DHT22;5607;48.302;14.294;2023-07-29T14:20:19;25.30;99.90
11107;DHT22;5607;48.302;14.294;2023-07-29T14:23:05;25.30;99.90
11107;DHT22;5607;48.302;14.294;2023-07-29T14:25:52;25.30;99.90
11107;DHT22;5607;48.302;14.294;2023-07-29T14:28:38;25.30;99.90
11107;DHT22;5607;48.302;14.294;2023-07-29T14:31:24;25.50;99.90
11107;DHT22;5607;48.302;14.294;2023-07-29T14:34:10;25.60;99.90
11107;DHT22;5607;48.302;14.294;2023-07-29T14:36:56;26.70;88.90
11107;DHT22;5607;48.302;14.294;2023-07-29T14:39:43;29.60;27.00
11107;DHT22;5607;48.302;14.294;2023-07-29T14:42:29;33.50;1.00
11107;DHT22;5607;48.302;14.294;2023-07-29T14:45:15;36.00;1.00
11107;DHT22;5607;48.302;14.294;2023-07-29T14:48:03;37.60;1.00
11107;DHT22;5607;48.302;14.294;2023-07-29T14:50:49;38.90;1.00
11107;DHT22;5607;48.302;14.294;2023-07-29T14:53:36;39.80;1.00
11107;DHT22;5607;48.302;14.294;2023-07-29T14:56:22;41.20;1.00
11107;DHT22;5607;48.302;14.294;2023-07-29T14:59:08;42.80;1.00
11107;DHT22;5607;48.302;14.294;2023-07-29T15:01:54;43.40;1.00
11107;DHT22;5607;48.302;14.294;2023-07-29T15:04:40;43.80;1.00
11107;DHT22;5607;48.302;14.294;2023-07-29T15:07:27;44.50;1.00
11107;DHT22;5607;48.302;14.294;2023-07-29T15:10:16;45.00;1.00
11107;DHT22;5607;48.302;14.294;2023-07-29T15:13:02;43.60;1.00
11107;DHT22;5607;48.302;14.294;2023-07-29T15:18:53;42.00;1.00
11107;DHT22;5607;48.302;14.294;2023-07-29T15:21:39;40.70;1.00
11107;DHT22;5607;48.302;14.294;2023-07-29T15:24:26;40.10;1.00
11107;DHT22;5607;48.302;14.294;2023-07-29T15:27:12;40.40;1.00
11107;DHT22;5607;48.302;14.294;2023-07-29T15:29:58;40.10;1.00
11107;DHT22;5607;48.302;14.294;2023-07-29T15:32:44;37.50;1.00
11107;DHT22;5607;48.302;14.294;2023-07-29T15:35:31;35.20;1.00
11107;DHT22;5607;48.302;14.294;2023-07-29T15:38:22;33.70;2.10
11107;DHT22;5607;48.302;14.294;2023-07-29T15:41:08;32.70;5.00
11107;DHT22;5607;48.302;14.294;2023-07-29T15:43:55;31.50;10.10
11107;DHT22;5607;48.302;14.294;2023-07-29T15:46:42;30.80;18.40
11107;DHT22;5607;48.302;14.294;2023-07-29T15:49:28;29.90;33.50
11107;DHT22;5607;48.302;14.294;2023-07-29T15:52:14;28.90;46.10
11107;DHT22;5607;48.302;14.294;2023-07-29T15:55:00;28.20;57.70
11107;DHT22;5607;48.302;14.294;2023-07-29T15:57:47;27.60;69.60
11107;DHT22;5607;48.302;14.294;2023-07-29T16:00:33;27.10;71.30
11107;DHT22;5607;48.302;14.294;2023-07-29T16:03:19;26.90;81.10
11107;DHT22;5607;48.302;14.294;2023-07-29T16:06:06;26.70;87.60
11107;DHT22;5607;48.302;14.294;2023-07-29T16:08:52;26.60;79.40
11107;DHT22;5607;48.302;14.294;2023-07-29T16:11:39;26.60;99.60
11107;DHT22;5607;48.302;14.294;2023-07-29T16:14:25;26.30;91.00
11107;DHT22;5607;48.302;14.294;2023-07-29T16:17:11;26.20;91.40
11107;DHT22;5607;48.302;14.294;2023-07-29T16:19:58;26.20;93.60
11107;DHT22;5607;48.302;14.294;2023-07-29T16:22:45;25.90;94.50
11107;DHT22;5607;48.302;14.294;2023-07-29T16:25:31;25.80;89.00
11107;DHT22;5607;48.302;14.294;2023-07-29T16:28:17;25.80;96.00
11107;DHT22;5607;48.302;14.294;2023-07-29T16:31:03;25.70;75.80
11107;DHT22;5607;48.302;14.294;2023-07-29T16:33:50;25.40;71.30
11107;DHT22;5607;48.302;14.294;2023-07-29T16:36:36;25.50;73.50
11107;DHT22;5607;48.302;14.294;2023-07-29T16:39:22;25.60;67.20
11107;DHT22;5607;48.302;14.294;2023-07-29T16:42:08;25.70;63.50
11107;DHT22;5607;48.302;14.294;2023-07-29T16:44:54;25.70;70.60
11107;DHT22;5607;48.302;14.294;2023-07-29T16:47:41;25.90;57.40
11107;DHT22;5607;48.302;14.294;2023-07-29T16:50:27;26.00;52.20
11107;DHT22;5607;48.302;14.294;2023-07-29T16:53:13;25.60;67.20
11107;DHT22;5607;48.302;14.294;2023-07-29T16:55:59;25.50;50.80
11107;DHT22;5607;48.302;14.294;2023-07-29T16:58:46;25.40;49.40
11107;DHT22;5607;48.302;14.294;2023-07-29T17:01:32;25.20;62.50
11107;DHT22;5607;48.302;14.294;2023-07-29T17:04:18;25.00;64.50
11107;DHT22;5607;48.302;14.294;2023-07-29T17:07:06;24.90;70.80
11107;DHT22;5607;48.302;14.294;2023-07-29T17:09:53;24.70;75.00
11107;DHT22;5607;48.302;14.294;2023-07-29T17:12:39;24.70;81.40
11107;DHT22;5607;48.302;14.294;2023-07-29T17:15:25;24.50;82.10
11107;DHT22;5607;48.302;14.294;2023-07-29T17:18:11;24.40;89.60
11107;DHT22;5607;48.302;14.294;2023-07-29T17:20:59;24.40;99.90
11107;DHT22;5607;48.302;14.294;2023-07-29T17:23:45;24.40;88.70
11107;DHT22;5607;48.302;14.294;2023-07-29T17:26:31;24.40;99.90
11107;DHT22;5607;48.302;14.294;2023-07-29T17:29:17;24.30;99.90
11107;DHT22;5607;48.302;14.294;2023-07-29T17:32:04;24.30;99.90
11107;DHT22;5607;48.302;14.294;2023-07-29T17:34:50;24.30;99.90
11107;DHT22;5607;48.302;14.294;2023-07-29T17:37:36;24.40;99.90
11107;DHT22;5607;48.302;14.294;2023-07-29T17:40:22;24.40;99.90
11107;DHT22;5607;48.302;14.294;2023-07-29T17:43:09;24.40;99.90
11107;DHT22;5607;48.302;14.294;2023-07-29T17:45:55;24.30;99.90
11107;DHT22;5607;48.302;14.294;2023-07-29T17:48:41;24.20;99.90